sensor_id;sensor_type;location;lat;lon;timestamp;P1;durP1;ratioP1;P2;durP2;ratioP2
4601;SDS011;2313;48.552;9.370;2023-06-14T00:01:32;4.63;;;3.70;;
4601;SDS011;2313;48.552;9.370;2023-06-14T00:03:59;4.80;;;3.47;;
4601;SDS011;2313;48.552;9.370;2023-06-14T00:06:26;5.17;;;3.50;;
4601;SDS011;2313;48.552;9.370;2023-06-14T00:08:53;4.37;;;2.97;;
4601;SDS011;2313;48.552;9.370;2023-06-14T00:11:19;7.90;;;3.60;;
4601;SDS011;2313;48.552;9.370;2023-06-14T00:13:45;4.30;;;3.53;;
4601;SDS011;2313;48.552;9.370;2023-06-14T00:16:11;4.07;;;3.67;;
4601;SDS011;2313;48.552;9.370;2023-06-14T00:18:36;4.43;;;3.63;;
4601;SDS011;2313;48.552;9.370;2023-06-14T00:21:03;4.20;;;3.80;;
4601;SDS011;2313;48.552;9.370;2023-06-14T00:23:29;5.20;;;3.80;;
4601;SDS011;2313;48.552;9.370;2023-06-14T00:25:55;4.30;;;3.10;;
4601;SDS011;2313;48.552;9.370;2023-06-14T00:28:20;7.73;;;4.07;;
4601;SDS011;2313;48.552;9.370;2023-06-14T00:30:46;4.00;;;3.33;;
4601;SDS011;2313;48.552;9.370;2023-06-14T00:33:12;7.67;;;3.80;;
4601;SDS011;2313;48.552;9.370;2023-06-14T00:35:38;3.60;;;3.30;;
4601;SDS011;2313;48.552;9.370;2023-06-14T00:38:03;5.90;;;3.53;;
4601;SDS011;2313;48.552;9.370;2023-06-14T00:40:29;6.30;;;3.83;;
4601;SDS011;2313;48.552;9.370;2023-06-14T00:42:55;6.93;;;4.13;;
4601;SDS011;2313;48.552;9.370;2023-06-14T00:45:20;7.50;;;3.13;;
4601;SDS011;2313;48.552;9.370;2023-06-14T00:47:46;4.20;;;3.17;;
4601;SDS011;2313;48.552;9.370;2023-06-14T00:50:13;7.63;;;3.97;;
4601;SDS011;2313;48.552;9.370;2023-06-14T00:52:39;5.27;;;3.27;;
4601;SDS011;2313;48.552;9.370;2023-06-14T00:55:05;5.40;;;3.67;;
4601;SDS011;2313;48.552;9.370;2023-06-14T00:57:31;5.07;;;3.20;;
4601;SDS011;2313;48.552;9.370;2023-06-14T00:59:57;5.70;;;3.67;;
4601;SDS011;2313;48.552;9.370;2023-06-14T01:02:23;7.30;;;3.43;;
4601;SDS011;2313;48.552;9.370;2023-06-14T01:04:51;4.10;;;3.17;;
4601;SDS011;2313;48.552;9.370;2023-06-14T01:10:06;3.80;;;3.10;;
4601;SDS011;2313;48.552;9.370;2023-06-14T01:12:50;6.93;;;3.50;;
4601;SDS011;2313;48.552;9.370;2023-06-14T01:15:18;5.40;;;3.00;;
4601;SDS011;2313;48.552;9.370;2023-06-14T01:17:46;7.37;;;3.30;;
4601;SDS011;2313;48.552;9.370;2023-06-14T01:20:16;6.40;;;3.33;;
4601;SDS011;2313;48.552;9.370;2023-06-14T01:22:51;4.60;;;3.87;;
4601;SDS011;2313;48.552;9.370;2023-06-14T01:25:21;6.60;;;3.27;;
4601;SDS011;2313;48.552;9.370;2023-06-14T01:30:24;4.57;;;3.77;;
4601;SDS011;2313;48.552;9.370;2023-06-14T01:32:51;10.30;;;3.30;;
4601;SDS011;2313;48.552;9.370;2023-06-14T01:35:18;9.83;;;3.30;;
4601;SDS011;2313;48.552;9.370;2023-06-14T01:37:44;3.63;;;3.23;;
4601;SDS011;2313;48.552;9.370;2023-06-14T01:40:12;8.13;;;3.77;;
4601;SDS011;2313;48.552;9.370;2023-06-14T01:42:40;4.07;;;3.20;;
4601;SDS011;2313;48.552;9.370;2023-06-14T01:45:07;4.57;;;3.80;;
4601;SDS011;2313;48.552;9.370;2023-06-14T01:47:35;10.27;;;3.57;;
4601;SDS011;2313;48.552;9.370;2023-06-14T01:50:02;4.37;;;3.20;;
4601;SDS011;2313;48.552;9.370;2023-06-14T01:52:29;4.90;;;3.60;;
4601;SDS011;2313;48.552;9.370;2023-06-14T01:54:54;4.10;;;3.13;;
4601;SDS011;2313;48.552;9.370;2023-06-14T01:57:20;11.30;;;4.17;;
4601;SDS011;2313;48.552;9.370;2023-06-14T01:59:47;4.80;;;4.00;;
4601;SDS011;2313;48.552;9.370;2023-06-14T02:02:13;4.50;;;3.43;;
4601;SDS011;2313;48.552;9.370;2023-06-14T02:04:40;3.60;;;3.30;;
4601;SDS011;2313;48.552;9.370;2023-06-14T02:07:05;15.73;;;3.67;;
4601;SDS011;2313;48.552;9.370;2023-06-14T02:09:31;3.50;;;3.20;;
4601;SDS011;2313;48.552;9.370;2023-06-14T02:11:57;6.37;;;4.17;;
4601;SDS011;2313;48.552;9.370;2023-06-14T02:14:23;8.20;;;4.00;;
4601;SDS011;2313;48.552;9.370;2023-06-14T02:16:48;5.30;;;4.10;;
4601;SDS011;2313;48.552;9.370;2023-06-14T02:19:15;5.03;;;3.70;;
4601;SDS011;2313;48.552;9.370;2023-06-14T02:21:41;5.27;;;3.20;;
4601;SDS011;2313;48.552;9.370;2023-06-14T02:24:07;9.00;;;3.57;;
4601;SDS011;2313;48.552;9.370;2023-06-14T02:26:33;5.50;;;3.67;;
4601;SDS011;2313;48.552;9.370;2023-06-14T02:28:59;4.67;;;3.40;;
4601;SDS011;2313;48.552;9.370;2023-06-14T02:31:24;5.67;;;4.03;;
4601;SDS011;2313;48.552;9.370;2023-06-14T02:33:50;5.30;;;3.73;;
4601;SDS011;2313;48.552;9.370;2023-06-14T02:36:16;8.50;;;3.50;;
4601;SDS011;2313;48.552;9.370;2023-06-14T02:38:42;6.07;;;3.40;;
4601;SDS011;2313;48.552;9.370;2023-06-14T02:41:07;6.30;;;3.57;;
4601;SDS011;2313;48.552;9.370;2023-06-14T02:43:33;6.10;;;3.40;;
4601;SDS011;2313;48.552;9.370;2023-06-14T02:45:59;5.67;;;3.37;;
4601;SDS011;2313;48.552;9.370;2023-06-14T02:48:24;3.67;;;3.20;;
4601;SDS011;2313;48.552;9.370;2023-06-14T02:50:50;7.77;;;4.47;;
4601;SDS011;2313;48.552;9.370;2023-06-14T02:53:16;4.70;;;3.57;;
4601;SDS011;2313;48.552;9.370;2023-06-14T02:55:42;7.30;;;4.00;;
4601;SDS011;2313;48.552;9.370;2023-06-14T02:58:07;3.80;;;3.40;;
4601;SDS011;2313;48.552;9.370;2023-06-14T03:00:33;4.00;;;3.60;;
4601;SDS011;2313;48.552;9.370;2023-06-14T03:03:00;4.17;;;3.77;;
4601;SDS011;2313;48.552;9.370;2023-06-14T03:05:27;5.10;;;3.70;;
4601;SDS011;2313;48.552;9.370;2023-06-14T03:07:53;4.37;;;3.57;;
4601;SDS011;2313;48.552;9.370;2023-06-14T03:10:19;4.70;;;4.03;;
4601;SDS011;2313;48.552;9.370;2023-06-14T03:12:45;8.03;;;3.97;;
4601;SDS011;2313;48.552;9.370;2023-06-14T03:15:12;7.30;;;2.97;;
4601;SDS011;2313;48.552;9.370;2023-06-14T03:17:40;4.37;;;3.67;;
4601;SDS011;2313;48.552;9.370;2023-06-14T03:20:09;14.60;;;4.10;;
4601;SDS011;2313;48.552;9.370;2023-06-14T03:22:35;5.07;;;4.30;;
4601;SDS011;2313;48.552;9.370;2023-06-14T03:25:02;3.97;;;3.27;;
4601;SDS011;2313;48.552;9.370;2023-06-14T03:27:29;4.27;;;3.33;;
4601;SDS011;2313;48.552;9.370;2023-06-14T03:29:55;7.47;;;3.93;;
4601;SDS011;2313;48.552;9.370;2023-06-14T03:32:20;3.77;;;3.47;;
4601;SDS011;2313;48.552;9.370;2023-06-14T03:34:46;7.97;;;4.00;;
4601;SDS011;2313;48.552;9.370;2023-06-14T03:37:11;6.07;;;4.00;;
4601;SDS011;2313;48.552;9.370;2023-06-14T03:39:37;4.70;;;3.60;;
4601;SDS011;2313;48.552;9.370;2023-06-14T03:42:03;7.47;;;3.50;;
4601;SDS011;2313;48.552;9.370;2023-06-14T03:44:29;4.50;;;3.90;;
4601;SDS011;2313;48.552;9.370;2023-06-14T03:46:55;7.13;;;3.97;;
4601;SDS011;2313;48.552;9.370;2023-06-14T03:49:20;7.13;;;3.90;;
4601;SDS011;2313;48.552;9.370;2023-06-14T03:51:46;6.90;;;3.90;;
4601;SDS011;2313;48.552;9.370;2023-06-14T03:54:16;7.53;;;4.37;;
4601;SDS011;2313;48.552;9.370;2023-06-14T03:56:41;6.07;;;4.00;;
4601;SDS011;2313;48.552;9.370;2023-06-14T03:59:07;4.57;;;3.80;;
4601;SDS011;2313;48.552;9.370;2023-06-14T04:01:32;5.70;;;3.90;;
4601;SDS011;2313;48.552;9.370;2023-06-14T04:03:58;6.10;;;5.30;;
4601;SDS011;2313;48.552;9.370;2023-06-14T04:06:24;5.47;;;3.40;;
4601;SDS011;2313;48.552;9.370;2023-06-14T04:08:57;8.50;;;4.20;;
4601;SDS011;2313;48.552;9.370;2023-06-14T04:11:28;5.77;;;4.17;;
4601;SDS011;2313;48.552;9.370;2023-06-14T04:13:54;5.77;;;4.13;;
4601;SDS011;2313;48.552;9.370;2023-06-14T04:16:21;6.00;;;3.93;;
4601;SDS011;2313;48.552;9.370;2023-06-14T04:18:47;4.40;;;4.00;;
4601;SDS011;2313;48.552;9.370;2023-06-14T04:21:13;8.40;;;3.60;;
4601;SDS011;2313;48.552;9.370;2023-06-14T04:23:39;5.93;;;3.67;;
4601;SDS011;2313;48.552;9.370;2023-06-14T04:26:08;4.77;;;3.57;;
4601;SDS011;2313;48.552;9.370;2023-06-14T04:28:35;5.43;;;3.93;;
4601;SDS011;2313;48.552;9.370;2023-06-14T04:31:05;4.47;;;3.27;;
4601;SDS011;2313;48.552;9.370;2023-06-14T04:33:33;6.60;;;3.47;;
4601;SDS011;2313;48.552;9.370;2023-06-14T04:36:08;4.63;;;3.73;;
4601;SDS011;2313;48.552;9.370;2023-06-14T04:38:37;7.10;;;3.90;;
4601;SDS011;2313;48.552;9.370;2023-06-14T04:41:03;6.43;;;3.60;;
4601;SDS011;2313;48.552;9.370;2023-06-14T04:43:29;9.60;;;4.13;;
4601;SDS011;2313;48.552;9.370;2023-06-14T04:45:54;6.57;;;3.70;;
4601;SDS011;2313;48.552;9.370;2023-06-14T04:48:21;4.30;;;3.40;;
4601;SDS011;2313;48.552;9.370;2023-06-14T04:50:47;5.07;;;4.37;;
4601;SDS011;2313;48.552;9.370;2023-06-14T04:53:17;4.33;;;3.93;;
4601;SDS011;2313;48.552;9.370;2023-06-14T04:55:46;8.57;;;4.30;;
4601;SDS011;2313;48.552;9.370;2023-06-14T04:58:12;7.73;;;3.80;;
4601;SDS011;2313;48.552;9.370;2023-06-14T05:00:38;6.07;;;3.73;;
4601;SDS011;2313;48.552;9.370;2023-06-14T05:03:04;5.97;;;4.40;;
4601;SDS011;2313;48.552;9.370;2023-06-14T05:05:30;7.73;;;4.00;;
4601;SDS011;2313;48.552;9.370;2023-06-14T05:07:57;6.17;;;4.90;;
4601;SDS011;2313;48.552;9.370;2023-06-14T05:10:23;6.43;;;4.60;;
4601;SDS011;2313;48.552;9.370;2023-06-14T05:12:49;9.53;;;5.87;;
4601;SDS011;2313;48.552;9.370;2023-06-14T05:15:17;13.73;;;5.17;;
4601;SDS011;2313;48.552;9.370;2023-06-14T05:17:45;12.63;;;5.27;;
4601;SDS011;2313;48.552;9.370;2023-06-14T05:20:18;12.07;;;5.20;;
4601;SDS011;2313;48.552;9.370;2023-06-14T05:22:43;11.90;;;5.43;;
4601;SDS011;2313;48.552;9.370;2023-06-14T05:25:09;8.60;;;5.17;;
4601;SDS011;2313;48.552;9.370;2023-06-14T05:27:34;8.03;;;4.90;;
4601;SDS011;2313;48.552;9.370;2023-06-14T05:30:02;6.87;;;4.17;;
4601;SDS011;2313;48.552;9.370;2023-06-14T05:32:28;7.77;;;5.27;;
4601;SDS011;2313;48.552;9.370;2023-06-14T05:34:54;12.30;;;5.73;;
4601;SDS011;2313;48.552;9.370;2023-06-14T05:37:20;6.47;;;5.27;;
4601;SDS011;2313;48.552;9.370;2023-06-14T05:39:46;6.97;;;5.33;;
4601;SDS011;2313;48.552;9.370;2023-06-14T05:42:11;9.90;;;5.27;;
4601;SDS011;2313;48.552;9.370;2023-06-14T05:44:37;9.17;;;6.27;;
4601;SDS011;2313;48.552;9.370;2023-06-14T05:47:03;8.97;;;4.93;;
4601;SDS011;2313;48.552;9.370;2023-06-14T05:49:29;7.73;;;5.60;;
4601;SDS011;2313;48.552;9.370;2023-06-14T05:51:54;11.20;;;5.37;;
4601;SDS011;2313;48.552;9.370;2023-06-14T05:54:20;8.40;;;5.70;;
4601;SDS011;2313;48.552;9.370;2023-06-14T05:56:45;8.10;;;5.10;;
4601;SDS011;2313;48.552;9.370;2023-06-14T05:59:11;5.97;;;5.37;;
4601;SDS011;2313;48.552;9.370;2023-06-14T06:01:36;8.40;;;5.17;;
4601;SDS011;2313;48.552;9.370;2023-06-14T06:04:02;7.93;;;5.23;;
4601;SDS011;2313;48.552;9.370;2023-06-14T06:06:28;6.40;;;5.07;;
4601;SDS011;2313;48.552;9.370;2023-06-14T06:08:54;8.40;;;5.80;;
4601;SDS011;2313;48.552;9.370;2023-06-14T06:11:19;7.70;;;5.10;;
4601;SDS011;2313;48.552;9.370;2023-06-14T06:13:45;11.53;;;5.17;;
4601;SDS011;2313;48.552;9.370;2023-06-14T06:16:10;7.33;;;5.40;;
4601;SDS011;2313;48.552;9.370;2023-06-14T06:18:36;6.30;;;5.10;;
4601;SDS011;2313;48.552;9.370;2023-06-14T06:21:03;12.07;;;5.37;;
4601;SDS011;2313;48.552;9.370;2023-06-14T06:23:29;6.73;;;4.90;;
4601;SDS011;2313;48.552;9.370;2023-06-14T06:25:55;6.07;;;5.10;;
4601;SDS011;2313;48.552;9.370;2023-06-14T06:28:21;8.93;;;5.60;;
4601;SDS011;2313;48.552;9.370;2023-06-14T06:30:47;8.03;;;4.53;;
4601;SDS011;2313;48.552;9.370;2023-06-14T06:33:12;7.57;;;5.40;;
4601;SDS011;2313;48.552;9.370;2023-06-14T06:35:39;4.80;;;4.30;;
4601;SDS011;2313;48.552;9.370;2023-06-14T06:38:05;14.60;;;4.93;;
4601;SDS011;2313;48.552;9.370;2023-06-14T06:40:30;6.20;;;4.30;;
4601;SDS011;2313;48.552;9.370;2023-06-14T06:42:56;5.70;;;4.50;;
4601;SDS011;2313;48.552;9.370;2023-06-14T06:45:22;8.43;;;4.60;;
4601;SDS011;2313;48.552;9.370;2023-06-14T06:47:48;5.37;;;4.83;;
4601;SDS011;2313;48.552;9.370;2023-06-14T06:50:15;6.10;;;4.37;;
4601;SDS011;2313;48.552;9.370;2023-06-14T06:52:40;7.60;;;5.10;;
4601;SDS011;2313;48.552;9.370;2023-06-14T06:55:06;5.73;;;5.13;;
4601;SDS011;2313;48.552;9.370;2023-06-14T06:57:33;8.07;;;5.20;;
4601;SDS011;2313;48.552;9.370;2023-06-14T06:59:59;14.47;;;5.20;;
4601;SDS011;2313;48.552;9.370;2023-06-14T07:02:24;5.57;;;4.83;;
4601;SDS011;2313;48.552;9.370;2023-06-14T07:04:50;12.17;;;5.20;;
4601;SDS011;2313;48.552;9.370;2023-06-14T07:07:17;7.60;;;5.27;;
4601;SDS011;2313;48.552;9.370;2023-06-14T07:09:42;11.03;;;4.90;;
4601;SDS011;2313;48.552;9.370;2023-06-14T07:12:09;6.57;;;4.80;;
4601;SDS011;2313;48.552;9.370;2023-06-14T07:14:36;15.43;;;5.50;;
4601;SDS011;2313;48.552;9.370;2023-06-14T07:17:02;8.60;;;4.73;;
4601;SDS011;2313;48.552;9.370;2023-06-14T07:19:28;6.80;;;4.80;;
4601;SDS011;2313;48.552;9.370;2023-06-14T07:21:53;7.13;;;4.73;;
4601;SDS011;2313;48.552;9.370;2023-06-14T07:24:19;8.17;;;4.93;;
4601;SDS011;2313;48.552;9.370;2023-06-14T07:26:46;5.03;;;4.40;;
4601;SDS011;2313;48.552;9.370;2023-06-14T07:29:13;7.77;;;4.80;;
4601;SDS011;2313;48.552;9.370;2023-06-14T07:31:39;6.90;;;4.83;;
4601;SDS011;2313;48.552;9.370;2023-06-14T07:34:04;9.90;;;4.67;;
4601;SDS011;2313;48.552;9.370;2023-06-14T07:36:30;6.00;;;4.90;;
4601;SDS011;2313;48.552;9.370;2023-06-14T07:38:56;10.73;;;4.90;;
4601;SDS011;2313;48.552;9.370;2023-06-14T07:41:21;8.93;;;5.17;;
4601;SDS011;2313;48.552;9.370;2023-06-14T07:43:47;5.67;;;4.47;;
4601;SDS011;2313;48.552;9.370;2023-06-14T07:46:12;6.57;;;5.13;;
4601;SDS011;2313;48.552;9.370;2023-06-14T07:48:39;11.93;;;5.03;;
4601;SDS011;2313;48.552;9.370;2023-06-14T07:51:05;7.60;;;5.37;;
4601;SDS011;2313;48.552;9.370;2023-06-14T07:53:30;7.70;;;5.30;;
4601;SDS011;2313;48.552;9.370;2023-06-14T07:55:56;9.60;;;4.80;;
4601;SDS011;2313;48.552;9.370;2023-06-14T07:58:22;9.00;;;4.97;;
4601;SDS011;2313;48.552;9.370;2023-06-14T08:00:48;7.33;;;4.70;;
4601;SDS011;2313;48.552;9.370;2023-06-14T08:03:14;9.27;;;5.93;;
4601;SDS011;2313;48.552;9.370;2023-06-14T08:05:39;19.23;;;4.70;;
4601;SDS011;2313;48.552;9.370;2023-06-14T08:08:05;8.07;;;4.90;;
4601;SDS011;2313;48.552;9.370;2023-06-14T08:10:30;11.43;;;4.90;;
4601;SDS011;2313;48.552;9.370;2023-06-14T08:12:56;6.93;;;4.33;;
4601;SDS011;2313;48.552;9.370;2023-06-14T08:15:22;5.80;;;4.53;;
4601;SDS011;2313;48.552;9.370;2023-06-14T08:17:47;5.80;;;4.77;;
4601;SDS011;2313;48.552;9.370;2023-06-14T08:20:13;5.60;;;4.83;;
4601;SDS011;2313;48.552;9.370;2023-06-14T08:22:41;8.07;;;5.50;;
4601;SDS011;2313;48.552;9.370;2023-06-14T08:25:07;9.47;;;5.40;;
4601;SDS011;2313;48.552;9.370;2023-06-14T08:27:33;7.60;;;4.83;;
4601;SDS011;2313;48.552;9.370;2023-06-14T08:29:59;6.97;;;4.83;;
4601;SDS011;2313;48.552;9.370;2023-06-14T08:32:25;9.23;;;5.33;;
4601;SDS011;2313;48.552;9.370;2023-06-14T08:34:50;11.20;;;4.77;;
4601;SDS011;2313;48.552;9.370;2023-06-14T08:37:16;6.00;;;4.40;;
4601;SDS011;2313;48.552;9.370;2023-06-14T08:39:42;6.13;;;5.00;;
4601;SDS011;2313;48.552;9.370;2023-06-14T08:42:09;10.53;;;4.97;;
4601;SDS011;2313;48.552;9.370;2023-06-14T08:44:35;14.60;;;5.43;;
4601;SDS011;2313;48.552;9.370;2023-06-14T08:47:01;14.20;;;5.10;;
4601;SDS011;2313;48.552;9.370;2023-06-14T08:49:28;9.13;;;4.77;;
4601;SDS011;2313;48.552;9.370;2023-06-14T08:51:57;7.50;;;4.30;;
4601;SDS011;2313;48.552;9.370;2023-06-14T08:54:25;5.20;;;4.00;;
4601;SDS011;2313;48.552;9.370;2023-06-14T08:56:54;5.30;;;4.53;;
4601;SDS011;2313;48.552;9.370;2023-06-14T08:59:23;7.37;;;4.50;;
4601;SDS011;2313;48.552;9.370;2023-06-14T09:01:51;6.30;;;4.20;;
4601;SDS011;2313;48.552;9.370;2023-06-14T09:04:18;8.47;;;4.53;;
4601;SDS011;2313;48.552;9.370;2023-06-14T09:06:45;13.43;;;4.50;;
4601;SDS011;2313;48.552;9.370;2023-06-14T09:09:10;8.00;;;4.10;;
4601;SDS011;2313;48.552;9.370;2023-06-14T09:11:37;7.90;;;4.20;;
4601;SDS011;2313;48.552;9.370;2023-06-14T09:14:03;5.00;;;3.97;;
4601;SDS011;2313;48.552;9.370;2023-06-14T09:16:31;6.50;;;4.47;;
4601;SDS011;2313;48.552;9.370;2023-06-14T09:18:57;8.33;;;4.27;;
4601;SDS011;2313;48.552;9.370;2023-06-14T09:21:23;8.00;;;4.17;;
4601;SDS011;2313;48.552;9.370;2023-06-14T09:23:48;5.10;;;4.20;;
4601;SDS011;2313;48.552;9.370;2023-06-14T09:26:15;9.40;;;3.23;;
4601;SDS011;2313;48.552;9.370;2023-06-14T09:28:48;4.53;;;4.07;;
4601;SDS011;2313;48.552;9.370;2023-06-14T09:31:15;6.00;;;4.40;;
4601;SDS011;2313;48.552;9.370;2023-06-14T09:33:43;6.70;;;4.10;;
4601;SDS011;2313;48.552;9.370;2023-06-14T09:36:17;7.83;;;4.33;;
4601;SDS011;2313;48.552;9.370;2023-06-14T09:38:53;10.10;;;4.10;;
4601;SDS011;2313;48.552;9.370;2023-06-14T09:41:20;9.00;;;4.10;;
4601;SDS011;2313;48.552;9.370;2023-06-14T09:43:55;9.70;;;4.37;;
4601;SDS011;2313;48.552;9.370;2023-06-14T09:46:22;12.03;;;4.00;;
4601;SDS011;2313;48.552;9.370;2023-06-14T09:48:48;5.53;;;4.07;;
4601;SDS011;2313;48.552;9.370;2023-06-14T09:51:13;11.00;;;4.50;;
4601;SDS011;2313;48.552;9.370;2023-06-14T09:53:42;7.20;;;4.37;;
4601;SDS011;2313;48.552;9.370;2023-06-14T09:56:09;8.63;;;4.47;;
4601;SDS011;2313;48.552;9.370;2023-06-14T09:58:36;7.93;;;4.60;;
4601;SDS011;2313;48.552;9.370;2023-06-14T10:01:04;10.70;;;4.30;;
4601;SDS011;2313;48.552;9.370;2023-06-14T10:03:33;4.57;;;4.07;;
4601;SDS011;2313;48.552;9.370;2023-06-14T10:06:02;19.63;;;4.57;;
4601;SDS011;2313;48.552;9.370;2023-06-14T10:08:32;10.70;;;4.03;;
4601;SDS011;2313;48.552;9.370;2023-06-14T10:11:02;4.43;;;3.97;;
4601;SDS011;2313;48.552;9.370;2023-06-14T10:13:28;4.40;;;4.00;;
4601;SDS011;2313;48.552;9.370;2023-06-14T10:16:05;7.20;;;4.50;;
4601;SDS011;2313;48.552;9.370;2023-06-14T10:18:49;5.20;;;4.07;;
4601;SDS011;2313;48.552;9.370;2023-06-14T10:21:21;4.47;;;4.07;;
4601;SDS011;2313;48.552;9.370;2023-06-14T10:23:59;8.20;;;4.27;;
4601;SDS011;2313;48.552;9.370;2023-06-14T10:26:30;8.47;;;4.20;;
4601;SDS011;2313;48.552;9.370;2023-06-14T10:29:00;5.33;;;4.13;;
4601;SDS011;2313;48.552;9.370;2023-06-14T10:31:45;9.33;;;3.80;;
4601;SDS011;2313;48.552;9.370;2023-06-14T10:34:30;9.13;;;4.37;;
4601;SDS011;2313;48.552;9.370;2023-06-14T10:37:00;6.43;;;3.67;;
4601;SDS011;2313;48.552;9.370;2023-06-14T10:39:40;5.60;;;3.73;;
4601;SDS011;2313;48.552;9.370;2023-06-14T10:42:07;6.50;;;3.50;;
4601;SDS011;2313;48.552;9.370;2023-06-14T10:44:37;11.17;;;4.83;;
4601;SDS011;2313;48.552;9.370;2023-06-14T10:47:08;7.87;;;3.87;;
4601;SDS011;2313;48.552;9.370;2023-06-14T10:50:05;10.10;;;4.23;;
4601;SDS011;2313;48.552;9.370;2023-06-14T10:52:42;6.37;;;3.77;;
4601;SDS011;2313;48.552;9.370;2023-06-14T10:55:12;4.80;;;3.37;;
4601;SDS011;2313;48.552;9.370;2023-06-14T10:57:46;3.43;;;3.13;;
4601;SDS011;2313;48.552;9.370;2023-06-14T11:00:16;5.80;;;4.00;;
4601;SDS011;2313;48.552;9.370;2023-06-14T11:05:33;6.70;;;3.97;;
4601;SDS011;2313;48.552;9.370;2023-06-14T11:11:00;7.70;;;3.57;;
4601;SDS011;2313;48.552;9.370;2023-06-14T11:13:31;5.47;;;3.90;;
4601;SDS011;2313;48.552;9.370;2023-06-14T11:15:57;5.47;;;3.73;;
4601;SDS011;2313;48.552;9.370;2023-06-14T11:18:23;5.30;;;3.53;;
4601;SDS011;2313;48.552;9.370;2023-06-14T11:20:55;5.20;;;3.90;;
4601;SDS011;2313;48.552;9.370;2023-06-14T11:23:21;6.60;;;3.73;;
4601;SDS011;2313;48.552;9.370;2023-06-14T11:25:51;4.30;;;3.90;;
4601;SDS011;2313;48.552;9.370;2023-06-14T11:28:17;4.90;;;3.60;;
4601;SDS011;2313;48.552;9.370;2023-06-14T11:30:45;4.30;;;3.87;;
4601;SDS011;2313;48.552;9.370;2023-06-14T11:33:11;5.77;;;4.40;;
4601;SDS011;2313;48.552;9.370;2023-06-14T11:35:42;7.00;;;4.03;;
4601;SDS011;2313;48.552;9.370;2023-06-14T11:38:07;10.40;;;4.10;;
4601;SDS011;2313;48.552;9.370;2023-06-14T11:40:37;4.90;;;4.50;;
4601;SDS011;2313;48.552;9.370;2023-06-14T11:43:03;5.43;;;4.53;;
4601;SDS011;2313;48.552;9.370;2023-06-14T11:45:29;5.33;;;3.97;;
4601;SDS011;2313;48.552;9.370;2023-06-14T11:47:56;10.60;;;4.30;;
4601;SDS011;2313;48.552;9.370;2023-06-14T11:50:25;9.30;;;4.60;;
4601;SDS011;2313;48.552;9.370;2023-06-14T11:52:53;5.23;;;4.10;;
4601;SDS011;2313;48.552;9.370;2023-06-14T11:55:20;9.03;;;3.80;;
4601;SDS011;2313;48.552;9.370;2023-06-14T11:57:47;12.30;;;4.63;;
4601;SDS011;2313;48.552;9.370;2023-06-14T12:00:13;9.53;;;4.20;;
4601;SDS011;2313;48.552;9.370;2023-06-14T12:02:40;8.50;;;4.53;;
4601;SDS011;2313;48.552;9.370;2023-06-14T12:05:06;4.00;;;3.50;;
4601;SDS011;2313;48.552;9.370;2023-06-14T12:07:35;6.20;;;4.13;;
4601;SDS011;2313;48.552;9.370;2023-06-14T12:10:05;5.83;;;3.93;;
4601;SDS011;2313;48.552;9.370;2023-06-14T12:12:37;4.63;;;4.03;;
4601;SDS011;2313;48.552;9.370;2023-06-14T12:15:04;5.83;;;3.53;;
4601;SDS011;2313;48.552;9.370;2023-06-14T12:17:32;4.77;;;4.23;;
4601;SDS011;2313;48.552;9.370;2023-06-14T12:20:03;6.57;;;4.63;;
4601;SDS011;2313;48.552;9.370;2023-06-14T12:22:33;6.37;;;3.60;;
4601;SDS011;2313;48.552;9.370;2023-06-14T12:24:59;4.63;;;3.90;;
4601;SDS011;2313;48.552;9.370;2023-06-14T12:27:25;6.37;;;3.80;;
4601;SDS011;2313;48.552;9.370;2023-06-14T12:30:00;4.23;;;3.83;;
4601;SDS011;2313;48.552;9.370;2023-06-14T12:32:27;6.73;;;4.37;;
4601;SDS011;2313;48.552;9.370;2023-06-14T12:34:55;4.70;;;4.20;;
4601;SDS011;2313;48.552;9.370;2023-06-14T12:37:21;6.13;;;4.30;;
4601;SDS011;2313;48.552;9.370;2023-06-14T12:39:46;13.00;;;3.60;;
4601;SDS011;2313;48.552;9.370;2023-06-14T12:42:12;4.10;;;3.60;;
4601;SDS011;2313;48.552;9.370;2023-06-14T12:44:39;8.50;;;4.10;;
4601;SDS011;2313;48.552;9.370;2023-06-14T12:47:06;10.10;;;4.60;;
4601;SDS011;2313;48.552;9.370;2023-06-14T12:49:32;6.80;;;3.87;;
4601;SDS011;2313;48.552;9.370;2023-06-14T12:51:58;9.40;;;3.73;;
4601;SDS011;2313;48.552;9.370;2023-06-14T12:54:24;8.20;;;3.63;;
4601;SDS011;2313;48.552;9.370;2023-06-14T12:56:51;6.80;;;4.30;;
4601;SDS011;2313;48.552;9.370;2023-06-14T12:59:17;4.07;;;3.67;;
4601;SDS011;2313;48.552;9.370;2023-06-14T13:01:43;17.03;;;4.80;;
4601;SDS011;2313;48.552;9.370;2023-06-14T13:04:09;4.30;;;3.70;;
4601;SDS011;2313;48.552;9.370;2023-06-14T13:06:35;5.10;;;3.83;;
4601;SDS011;2313;48.552;9.370;2023-06-14T13:09:01;6.40;;;3.63;;
4601;SDS011;2313;48.552;9.370;2023-06-14T13:11:28;4.27;;;3.87;;
4601;SDS011;2313;48.552;9.370;2023-06-14T13:13:54;10.10;;;4.37;;
4601;SDS011;2313;48.552;9.370;2023-06-14T13:16:20;4.70;;;4.10;;
4601;SDS011;2313;48.552;9.370;2023-06-14T13:18:46;4.80;;;4.37;;
4601;SDS011;2313;48.552;9.370;2023-06-14T13:21:11;4.17;;;3.77;;
4601;SDS011;2313;48.552;9.370;2023-06-14T13:23:37;5.70;;;3.90;;
4601;SDS011;2313;48.552;9.370;2023-06-14T13:26:02;5.27;;;3.77;;
4601;SDS011;2313;48.552;9.370;2023-06-14T13:28:28;4.33;;;3.93;;
4601;SDS011;2313;48.552;9.370;2023-06-14T13:30:54;6.50;;;4.43;;
4601;SDS011;2313;48.552;9.370;2023-06-14T13:33:20;6.37;;;4.40;;
4601;SDS011;2313;48.552;9.370;2023-06-14T13:35:46;9.20;;;4.30;;
4601;SDS011;2313;48.552;9.370;2023-06-14T13:38:13;6.50;;;3.70;;
4601;SDS011;2313;48.552;9.370;2023-06-14T13:40:40;7.43;;;4.13;;
4601;SDS011;2313;48.552;9.370;2023-06-14T13:43:06;5.70;;;4.10;;
4601;SDS011;2313;48.552;9.370;2023-06-14T13:45:31;5.30;;;3.50;;
4601;SDS011;2313;48.552;9.370;2023-06-14T13:47:57;7.30;;;4.13;;
4601;SDS011;2313;48.552;9.370;2023-06-14T13:50:22;4.83;;;3.63;;
4601;SDS011;2313;48.552;9.370;2023-06-14T13:52:48;4.63;;;3.43;;
4601;SDS011;2313;48.552;9.370;2023-06-14T13:55:14;6.90;;;4.07;;
4601;SDS011;2313;48.552;9.370;2023-06-14T13:57:39;5.40;;;3.73;;
4601;SDS011;2313;48.552;9.370;2023-06-14T14:00:05;7.37;;;4.30;;
4601;SDS011;2313;48.552;9.370;2023-06-14T14:02:31;5.97;;;3.97;;
4601;SDS011;2313;48.552;9.370;2023-06-14T14:04:57;4.20;;;3.90;;
4601;SDS011;2313;48.552;9.370;2023-06-14T14:07:22;6.70;;;3.90;;
4601;SDS011;2313;48.552;9.370;2023-06-14T14:09:48;5.00;;;4.07;;
4601;SDS011;2313;48.552;9.370;2023-06-14T14:12:14;5.53;;;4.27;;
4601;SDS011;2313;48.552;9.370;2023-06-14T14:14:40;6.43;;;4.30;;
4601;SDS011;2313;48.552;9.370;2023-06-14T14:17:06;4.03;;;3.40;;
4601;SDS011;2313;48.552;9.370;2023-06-14T14:19:31;5.97;;;4.17;;
4601;SDS011;2313;48.552;9.370;2023-06-14T14:21:58;9.40;;;4.30;;
4601;SDS011;2313;48.552;9.370;2023-06-14T14:24:23;11.53;;;4.13;;
4601;SDS011;2313;48.552;9.370;2023-06-14T14:26:49;4.83;;;3.60;;
4601;SDS011;2313;48.552;9.370;2023-06-14T14:29:15;11.97;;;3.77;;
4601;SDS011;2313;48.552;9.370;2023-06-14T14:31:42;6.20;;;4.83;;
4601;SDS011;2313;48.552;9.370;2023-06-14T14:34:07;5.10;;;4.00;;
4601;SDS011;2313;48.552;9.370;2023-06-14T14:36:33;5.27;;;3.70;;
4601;SDS011;2313;48.552;9.370;2023-06-14T14:39:02;5.37;;;4.50;;
4601;SDS011;2313;48.552;9.370;2023-06-14T14:41:28;4.73;;;4.30;;
4601;SDS011;2313;48.552;9.370;2023-06-14T14:43:54;5.80;;;3.97;;
4601;SDS011;2313;48.552;9.370;2023-06-14T14:46:20;5.60;;;3.97;;
4601;SDS011;2313;48.552;9.370;2023-06-14T14:48:45;6.27;;;3.40;;
4601;SDS011;2313;48.552;9.370;2023-06-14T14:51:11;9.30;;;4.20;;
4601;SDS011;2313;48.552;9.370;2023-06-14T14:53:37;5.00;;;4.23;;
4601;SDS011;2313;48.552;9.370;2023-06-14T14:56:02;5.00;;;3.53;;
4601;SDS011;2313;48.552;9.370;2023-06-14T14:58:28;14.53;;;4.00;;
4601;SDS011;2313;48.552;9.370;2023-06-14T15:00:53;7.63;;;4.57;;
4601;SDS011;2313;48.552;9.370;2023-06-14T15:03:19;7.60;;;3.57;;
4601;SDS011;2313;48.552;9.370;2023-06-14T15:05:46;4.80;;;3.97;;
4601;SDS011;2313;48.552;9.370;2023-06-14T15:08:12;4.37;;;3.97;;
4601;SDS011;2313;48.552;9.370;2023-06-14T15:10:38;7.17;;;4.00;;
4601;SDS011;2313;48.552;9.370;2023-06-14T15:13:08;4.73;;;3.70;;
4601;SDS011;2313;48.552;9.370;2023-06-14T15:15:34;5.80;;;3.83;;
4601;SDS011;2313;48.552;9.370;2023-06-14T15:18:00;11.47;;;4.17;;
4601;SDS011;2313;48.552;9.370;2023-06-14T15:20:26;4.87;;;4.33;;
4601;SDS011;2313;48.552;9.370;2023-06-14T15:22:52;7.00;;;4.10;;